Time;durP1;ratioP1;P1;durP2;ratioP2;P2;SDS_P1;SDS_P2;PMS_P1;PMS_P2;Temp;Humidity;BMP_temperature;BMP_pressure;BME280_temperature;BME280_humidity;BME280_pressure;Samples;Min_cycle;Max_cycle;Signal;HPM_P1;HPM_P2
2022/04/12 00:02:16;;;;;;;4.07;2.88;;;;;;;8.77;100.00;101078.41;5021371;28;20028;-66
2022/04/12 00:04:41;;;;;;;4.45;2.17;;;;;;;8.81;100.00;101086.19;5019483;28;20048;-65
2022/04/12 00:07:06;;;;;;;5.22;2.53;;;;;;;8.78;100.00;101077.47;5020574;28;20025;-65
2022/04/12 00:09:32;;;;;;;5.15;3.17;;;;;;;8.88;100.00;101081.56;5019027;28;20026;-66
2022/04/12 00:11:58;;;;;;;3.95;2.40;;;;;;;8.86;100.00;101094.00;5015757;28;20029;-65
2022/04/12 00:14:24;;;;;;;4.50;3.22;;;;;;;8.82;100.00;101092.38;5019634;28;20473;-66
2022/04/12 00:19:02;;;;;;;4.32;2.15;;;;;;;8.80;100.00;101094.19;5023481;28;20025;-65
2022/04/12 00:19:35;;;;;;;5.70;3.20;;;;;;;8.70;100.00;101083.00;5018089;28;20042;-66
2022/04/12 00:22:03;;;;;;;4.68;3.22;;;;;;;8.68;100.00;101094.59;5020845;28;20094;-66
2022/04/12 00:24:37;;;;;;;4.13;3.00;;;;;;;8.68;100.00;101090.13;5019174;28;20389;-65
2022/04/12 00:27:03;;;;;;;3.92;2.88;;;;;;;8.56;100.00;101087.88;5024033;28;20034;-66
2022/04/12 00:29:29;;;;;;;2.60;2.10;;;;;;;8.49;100.00;101089.00;5021715;28;20033;-66
2022/04/12 00:31:54;;;;;;;4.18;2.53;;;;;;;8.38;100.00;101084.91;5023756;28;20022;-66
2022/04/12 00:34:20;;;;;;;4.40;2.65;;;;;;;8.34;100.00;101093.84;5057566;27;20031;-65
2022/04/12 00:36:45;;;;;;;11.23;2.97;;;;;;;8.29;100.00;101086.03;5022971;27;20029;-66
2022/04/12 00:39:10;;;;;;;4.38;3.35;;;;;;;8.28;100.00;101089.63;5008510;28;20471;-66
2022/04/12 00:41:36;;;;;;;5.45;3.40;;;;;;;8.26;100.00;101090.56;5076005;27;20445;-65
2022/04/12 00:44:02;;;;;;;3.97;2.35;;;;;;;8.20;100.00;101091.59;5131499;27;20031;-66
2022/04/12 00:46:27;;;;;;;3.50;2.80;;;;;;;8.18;100.00;101077.53;5131513;27;20075;-66
2022/04/12 00:48:53;;;;;;;3.13;2.05;;;;;;;8.17;100.00;101081.09;5132233;27;20446;-66
2022/04/12 00:51:20;;;;;;;5.18;2.80;;;;;;;8.10;100.00;101083.97;5033121;27;20034;-66
2022/04/12 00:53:45;;;;;;;3.88;2.72;;;;;;;8.06;100.00;101067.31;5013501;28;20041;-66
2022/04/12 00:56:12;;;;;;;3.33;2.38;;;;;;;8.06;100.00;101072.59;5027781;28;20033;-66
2022/04/12 00:58:38;;;;;;;4.75;3.25;;;;;;;8.10;100.00;101083.97;5028132;28;20407;-65
2022/04/12 01:01:03;;;;;;;8.35;3.30;;;;;;;8.04;100.00;101071.75;5028467;28;20041;-66
2022/04/12 01:03:29;;;;;;;3.47;2.58;;;;;;;7.95;100.00;101065.88;5046005;28;20371;-66
2022/04/12 01:05:55;;;;;;;6.40;2.40;;;;;;;7.94;100.00;101072.09;5049261;28;20120;-66
2022/04/12 01:08:21;;;;;;;4.25;2.45;;;;;;;8.00;100.00;101061.31;5047341;28;20053;-66
2022/04/12 01:10:47;;;;;;;3.72;2.45;;;;;;;7.89;100.00;101066.94;5041301;28;20025;-65
2022/04/12 01:13:13;;;;;;;8.48;2.90;;;;;;;7.89;100.00;101071.34;5028760;28;20030;-66
2022/04/12 01:15:39;;;;;;;5.65;2.30;;;;;;;7.93;100.00;101052.69;5028103;28;20169;-66
2022/04/12 01:18:05;;;;;;;4.15;2.75;;;;;;;7.85;100.00;101056.47;5028584;28;20036;-66
2022/04/12 01:20:30;;;;;;;5.40;2.70;;;;;;;7.75;100.00;101053.22;5028141;28;20033;-65
2022/04/12 01:23:07;;;;;;;4.97;2.97;;;;;;;7.78;100.00;101058.44;5027431;28;20026;-65
2022/04/12 01:25:32;;;;;;;4.03;2.45;;;;;;;7.71;100.00;101065.66;5027518;28;20033;-65
2022/04/12 01:28:01;;;;;;;3.35;2.38;;;;;;;7.66;100.00;101061.38;5027792;28;20398;-66
2022/04/12 01:30:26;;;;;;;6.28;3.25;;;;;;;7.61;100.00;101065.97;5026489;28;20070;-66
2022/04/12 01:32:51;;;;;;;3.42;2.20;;;;;;;7.60;100.00;101057.16;5028245;28;20513;-66
2022/04/12 01:35:17;;;;;;;3.65;2.72;;;;;;;7.63;100.00;101057.06;5027899;28;20471;-66
2022/04/12 01:37:43;;;;;;;5.53;3.13;;;;;;;7.54;100.00;101054.69;5027869;28;20041;-65
2022/04/12 01:40:11;;;;;;;3.97;2.75;;;;;;;7.42;100.00;101054.97;5028151;28;20049;-66
2022/04/12 01:42:38;;;;;;;4.03;2.90;;;;;;;7.40;100.00;101050.66;5027530;28;20061;-66
2022/04/12 01:45:05;;;;;;;4.50;2.60;;;;;;;7.44;100.00;101044.38;5027765;28;20033;-65
2022/04/12 01:47:30;;;;;;;3.40;2.80;;;;;;;7.36;100.00;101036.66;5027251;28;20368;-65
2022/04/12 01:49:55;;;;;;;5.10;2.75;;;;;;;7.27;100.00;101039.53;5026537;28;20040;-66
2022/04/12 01:52:24;;;;;;;4.10;2.80;;;;;;;7.29;100.00;101053.59;5027014;28;20475;-66
2022/04/12 01:54:49;;;;;;;5.25;2.88;;;;;;;7.16;100.00;101056.56;5026954;28;20029;-65
2022/04/12 01:57:15;;;;;;;5.40;3.25;;;;;;;7.22;100.00;101051.13;5026275;28;20036;-66
2022/04/12 01:59:42;;;;;;;2.90;2.53;;;;;;;7.21;100.00;101050.28;5027046;28;20034;-66
2022/04/12 02:02:08;;;;;;;4.05;3.13;;;;;;;7.14;100.00;101042.53;5026681;28;20037;-66
2022/04/12 02:04:33;;;;;;;2.95;2.13;;;;;;;7.07;100.00;101036.56;5025932;28;20065;-65
2022/04/12 02:06:58;;;;;;;3.80;2.33;;;;;;;7.22;100.00;101041.44;5026865;28;20368;-65
2022/04/12 02:09:24;;;;;;;4.60;3.08;;;;;;;7.16;100.00;101041.59;5026310;28;20025;-65
2022/04/12 02:11:49;;;;;;;4.07;2.72;;;;;;;7.11;100.00;101038.19;5026211;28;20397;-65
2022/04/12 02:14:14;;;;;;;3.13;2.38;;;;;;;7.08;100.00;101030.34;5026438;28;20033;-65
2022/04/12 02:16:43;;;;;;;6.18;3.80;;;;;;;7.03;100.00;101042.81;5026832;28;20037;-66
2022/04/12 02:19:08;;;;;;;3.58;2.70;;;;;;;7.07;100.00;101049.75;5026178;28;20060;-66
2022/04/12 02:21:33;;;;;;;4.55;2.30;;;;;;;6.97;100.00;101042.97;5026343;28;20483;-66
2022/04/12 02:23:58;;;;;;;3.97;2.60;;;;;;;6.97;100.00;101031.53;5026434;28;20452;-66
2022/04/12 02:26:24;;;;;;;3.35;2.20;;;;;;;6.90;100.00;101022.03;5025726;28;20057;-65
2022/04/12 02:28:49;;;;;;;3.10;2.45;;;;;;;6.98;100.00;101012.16;5026677;28;20068;-66
2022/04/12 02:31:14;;;;;;;2.65;1.83;;;;;;;7.01;100.00;101012.06;5026375;28;20056;-66
2022/04/12 02:33:40;;;;;;;3.30;2.15;;;;;;;7.01;100.00;101014.72;5026048;28;20033;-66
2022/04/12 02:36:05;;;;;;;4.25;3.13;;;;;;;7.01;100.00;101020.00;5026666;28;20025;-66
2022/04/12 02:38:31;;;;;;;4.22;2.70;;;;;;;6.98;100.00;101017.44;5026086;28;20085;-66
2022/04/12 02:40:56;;;;;;;5.28;2.72;;;;;;;6.96;100.00;101012.19;5026077;28;20037;-66
2022/04/12 02:43:21;;;;;;;3.38;2.78;;;;;;;6.94;100.00;101011.34;5026354;28;20157;-66
2022/04/12 02:45:47;;;;;;;2.80;2.00;;;;;;;6.98;100.00;101004.22;5025883;28;20053;-66
2022/04/12 02:48:12;;;;;;;6.22;2.83;;;;;;;6.90;100.00;100999.13;5025769;28;20032;-66
2022/04/12 02:50:38;;;;;;;10.80;2.90;;;;;;;6.86;100.00;100999.25;5026034;28;20022;-66
2022/04/12 02:53:03;;;;;;;5.03;3.17;;;;;;;6.80;100.00;100994.13;5025715;28;20034;-66
2022/04/12 02:55:29;;;;;;;3.65;1.75;;;;;;;6.77;100.00;100991.56;5026314;28;20033;-66
2022/04/12 02:57:54;;;;;;;3.42;2.28;;;;;;;6.77;100.00;100975.72;5026491;28;20026;-66
2022/04/12 03:00:19;;;;;;;8.98;2.53;;;;;;;6.75;100.00;100985.44;5025239;28;20072;-66
2022/04/12 03:02:47;;;;;;;5.80;2.22;;;;;;;6.71;100.00;100978.53;5040201;28;20033;-66
2022/04/12 03:05:12;;;;;;;4.38;1.92;;;;;;;6.66;100.00;100972.47;5046029;28;20104;-66
2022/04/12 03:07:38;;;;;;;10.23;3.20;;;;;;;6.68;100.00;100978.59;5045356;28;20168;-68
2022/04/12 03:10:04;;;;;;;5.25;3.40;;;;;;;6.62;100.00;100981.41;5046545;28;20064;-66
2022/04/12 03:12:30;;;;;;;4.63;2.58;;;;;;;6.61;100.00;100971.72;5045651;28;20021;-66
2022/04/12 03:14:55;;;;;;;4.53;2.95;;;;;;;6.54;100.00;100978.06;5045080;28;20028;-66
2022/04/12 03:17:20;;;;;;;3.85;2.53;;;;;;;6.57;100.00;100967.44;5045701;28;20104;-66
2022/04/12 03:19:46;;;;;;;3.38;2.47;;;;;;;6.58;100.00;100979.72;5046060;28;20116;-66
2022/04/12 03:22:12;;;;;;;4.75;2.33;;;;;;;6.60;100.00;100973.50;5045393;28;20029;-66
2022/04/12 03:24:37;;;;;;;3.40;2.65;;;;;;;6.56;100.00;100981.50;5045845;28;20033;-66
2022/04/12 03:27:03;;;;;;;6.95;2.05;;;;;;;6.50;100.00;100986.94;5045858;28;20037;-66
2022/04/12 03:29:28;;;;;;;2.95;2.25;;;;;;;6.51;100.00;100993.97;5044726;28;20039;-66
2022/04/12 03:31:54;;;;;;;5.50;2.88;;;;;;;6.43;100.00;100986.22;5045909;28;20427;-67
2022/04/12 03:34:19;;;;;;;3.92;2.03;;;;;;;6.41;100.00;100985.41;5045435;28;20487;-66
2022/04/12 03:36:46;;;;;;;4.72;2.30;;;;;;;6.47;100.00;100985.25;5044989;28;20459;-67
2022/04/12 03:39:17;;;;;;;3.75;2.45;;;;;;;6.55;100.00;100975.41;5045249;28;20152;-67
2022/04/12 03:41:43;;;;;;;2.65;1.63;;;;;;;6.60;100.00;100973.50;5045843;28;20029;-66
2022/04/12 03:44:08;;;;;;;2.80;1.80;;;;;;;6.66;100.00;100964.56;5044941;28;20057;-67
2022/04/12 03:46:34;;;;;;;7.00;2.42;;;;;;;6.74;100.00;100966.13;5045047;28;20079;-67
2022/04/12 03:48:59;;;;;;;4.90;1.88;;;;;;;6.76;100.00;100958.16;5045371;28;20028;-66
2022/04/12 03:51:24;;;;;;;7.18;2.72;;;;;;;6.81;100.00;100978.25;5044267;28;20465;-67
2022/04/12 03:53:50;;;;;;;6.35;2.75;;;;;;;6.84;100.00;100982.59;5044578;28;20393;-66
2022/04/12 03:56:16;;;;;;;2.92;1.85;;;;;;;6.74;100.00;100997.78;5044901;28;20411;-66
2022/04/12 03:58:41;;;;;;;3.15;1.95;;;;;;;6.70;100.00;101011.94;5044792;28;20111;-66
2022/04/12 04:01:07;;;;;;;3.65;2.53;;;;;;;6.76;100.00;101016.22;5046351;28;20076;-66
2022/04/12 04:03:35;;;;;;;2.53;1.90;;;;;;;6.62;100.00;101015.69;5128282;28;20039;-66
2022/04/12 04:06:01;;;;;;;4.35;2.03;;;;;;;6.52;100.00;101015.03;5129080;27;20409;-66
2022/04/12 04:08:27;;;;;;;3.17;1.80;;;;;;;6.47;100.00;101013.41;5129171;27;20055;-66
2022/04/12 04:10:53;;;;;;;5.78;2.65;;;;;;;6.37;100.00;101011.91;5128408;27;20432;-66
2022/04/12 04:13:18;;;;;;;3.35;1.98;;;;;;;6.33;100.00;101008.47;5129193;27;20034;-65
2022/04/12 04:15:45;;;;;;;3.15;2.20;;;;;;;6.33;100.00;101005.81;5129293;27;20473;-66
2022/04/12 04:18:14;;;;;;;3.78;2.45;;;;;;;6.28;100.00;100998.91;5128725;27;20031;-66
2022/04/12 04:20:40;;;;;;;5.40;2.63;;;;;;;6.33;100.00;100986.47;5129103;27;20107;-67
2022/04/12 04:23:05;;;;;;;8.50;2.58;;;;;;;6.37;100.00;100981.09;5129663;27;20115;-66
2022/04/12 04:25:31;;;;;;;3.20;2.05;;;;;;;6.36;100.00;100970.56;5123478;27;20023;-66
2022/04/12 04:27:56;;;;;;;4.53;2.45;;;;;;;6.32;100.00;100968.94;5015541;28;20262;-65
2022/04/12 04:30:22;;;;;;;2.78;1.58;;;;;;;6.32;100.00;100967.13;5015594;28;20054;-65
2022/04/12 04:32:50;;;;;;;2.42;1.83;;;;;;;6.27;100.00;100968.16;5012550;28;20044;-66
2022/04/12 04:35:16;;;;;;;4.28;2.50;;;;;;;6.21;100.00;100970.03;5015624;28;20062;-66
2022/04/12 04:37:47;;;;;;;3.50;2.40;;;;;;;6.28;100.00;100972.53;5005376;28;20068;-66
2022/04/12 04:40:16;;;;;;;3.35;2.65;;;;;;;6.20;100.00;100967.44;5005457;28;20117;-66
2022/04/12 04:42:44;;;;;;;3.47;2.33;;;;;;;6.19;100.00;100960.44;5009551;28;20106;-66
2022/04/12 04:45:10;;;;;;;2.50;1.70;;;;;;;6.10;100.00;100963.25;5018751;28;20120;-65
2022/04/12 04:47:54;;;;;;;4.03;1.95;;;;;;;6.12;100.00;100958.81;5009442;28;20546;-67
2022/04/12 04:50:21;;;;;;;4.82;2.30;;;;;;;6.17;100.00;100955.19;5006375;28;20477;-66
2022/04/12 04:52:48;;;;;;;2.53;1.77;;;;;;;6.18;100.00;100962.19;5008808;28;20022;-66
2022/04/12 04:55:14;;;;;;;3.75;1.80;;;;;;;6.11;100.00;100957.94;5009181;28;20030;-66
2022/04/12 04:57:43;;;;;;;3.28;1.92;;;;;;;6.12;100.00;100950.91;5009092;28;20460;-66
2022/04/12 05:00:18;;;;;;;3.63;2.10;;;;;;;6.12;100.00;100962.34;5009576;28;20037;-66
2022/04/12 05:02:48;;;;;;;4.35;2.53;;;;;;;6.17;100.00;100956.97;5015533;28;20059;-65
2022/04/12 05:05:17;;;;;;;5.30;2.55;;;;;;;6.08;100.00;100960.66;5025703;28;20112;-66
2022/04/12 05:07:46;;;;;;;3.85;2.05;;;;;;;6.08;100.00;100962.44;5027595;28;20036;-66
2022/04/12 05:10:19;;;;;;;2.95;2.20;;;;;;;6.02;100.00;100962.56;5028694;28;20033;-66
2022/04/12 05:12:45;;;;;;;7.57;1.83;;;;;;;6.03;100.00;100967.81;5027605;28;20025;-66
2022/04/12 05:15:11;;;;;;;5.72;2.97;;;;;;;6.04;100.00;100963.41;5027337;28;20117;-65
2022/04/12 05:17:36;;;;;;;5.85;2.85;;;;;;;6.02;100.00;100970.47;5027707;28;20108;-66
2022/04/12 05:20:05;;;;;;;2.90;1.52;;;;;;;5.94;100.00;100969.78;5028135;28;20029;-66
2022/04/12 05:22:31;;;;;;;3.50;2.75;;;;;;;5.89;100.00;100972.50;5026610;28;20129;-65
2022/04/12 05:24:56;;;;;;;4.32;2.95;;;;;;;5.96;100.00;100979.41;5026496;28;20515;-65
2022/04/12 05:27:22;;;;;;;2.22;1.67;;;;;;;5.92;100.00;100977.75;5027259;28;20029;-67
2022/04/12 05:29:48;;;;;;;3.47;2.10;;;;;;;5.94;100.00;100980.34;5036471;27;20077;-66
2022/04/12 05:32:13;;;;;;;3.10;2.08;;;;;;;5.99;100.00;100983.72;5026485;27;20041;-65
2022/04/12 05:34:40;;;;;;;5.82;2.92;;;;;;;5.95;100.00;100988.22;5015846;28;20141;-65
2022/04/12 05:37:05;;;;;;;2.97;2.05;;;;;;;5.94;100.00;100994.38;5022464;28;20042;-65
2022/04/12 05:39:32;;;;;;;2.00;1.55;;;;;;;5.91;100.00;100993.56;5030328;28;20439;-65
2022/04/12 05:42:01;;;;;;;3.67;2.13;;;;;;;5.96;100.00;100995.22;5034918;28;20029;-66
2022/04/12 05:44:27;;;;;;;2.72;2.00;;;;;;;5.97;100.00;100996.09;5055690;27;20041;-67
2022/04/12 05:46:53;;;;;;;7.85;2.88;;;;;;;6.03;100.00;100993.31;5022245;28;20037;-66
2022/04/12 05:49:18;;;;;;;4.60;3.20;;;;;;;6.08;100.00;100989.66;5017108;28;20459;-67
2022/04/12 05:51:43;;;;;;;4.13;2.65;;;;;;;6.21;100.00;100988.50;5024991;28;20033;-66
2022/04/12 05:54:09;;;;;;;4.40;2.40;;;;;;;6.41;100.00;100993.31;5025518;28;20152;-66
2022/04/12 05:56:34;;;;;;;8.82;2.15;;;;;;;6.58;100.00;100990.28;5019889;28;20132;-66
2022/04/12 05:58:59;;;;;;;3.05;2.03;;;;;;;6.67;100.00;100990.03;5030498;28;20033;-66
2022/04/12 06:01:24;;;;;;;8.57;2.75;;;;;;;6.74;100.00;100994.28;5058678;27;20275;-64
2022/04/12 06:03:50;;;;;;;3.97;2.55;;;;;;;6.85;100.00;100992.25;5009646;28;20113;-66
2022/04/12 06:06:16;;;;;;;3.65;2.55;;;;;;;6.91;100.00;100994.72;5006148;28;20105;-65
2022/04/12 06:08:41;;;;;;;3.08;2.17;;;;;;;7.18;100.00;100988.72;5019743;28;20078;-65
2022/04/12 06:11:07;;;;;;;3.13;2.30;;;;;;;7.35;100.00;100974.16;5011812;28;20065;-67
2022/04/12 06:13:32;;;;;;;5.57;2.70;;;;;;;7.57;100.00;100979.72;5006924;28;20186;-65
2022/04/12 06:15:57;;;;;;;5.95;2.65;;;;;;;7.75;100.00;100972.13;5013168;28;20060;-66
2022/04/12 06:18:23;;;;;;;5.80;3.17;;;;;;;7.74;100.00;100974.81;5031193;28;20033;-64
2022/04/12 06:20:48;;;;;;;4.90;2.60;;;;;;;7.85;100.00;100975.34;5026553;28;20479;-65
2022/04/12 06:23:14;;;;;;;4.43;2.60;;;;;;;7.81;100.00;100979.00;5026410;28;20462;-66
2022/04/12 06:25:40;;;;;;;2.88;1.50;;;;;;;7.98;100.00;100975.84;5027238;28;20357;-64
2022/04/12 06:28:07;;;;;;;3.95;2.88;;;;;;;7.95;100.00;100983.88;5046715;28;20362;-65
2022/04/12 06:30:32;;;;;;;7.15;2.15;;;;;;;8.07;100.00;100988.84;5030889;28;20045;-65
2022/04/12 06:32:58;;;;;;;2.17;1.73;;;;;;;8.10;100.00;100991.38;5029940;28;20048;-65
2022/04/12 06:35:25;;;;;;;3.70;2.42;;;;;;;8.35;100.00;100982.66;5042725;27;20140;-65
2022/04/12 06:37:56;;;;;;;5.90;3.42;;;;;;;8.36;100.00;100981.75;5026611;28;20041;-65
2022/04/12 06:40:22;;;;;;;4.55;3.08;;;;;;;8.35;100.00;100995.88;5026482;28;20148;-65
2022/04/12 06:42:48;;;;;;;4.45;2.90;;;;;;;8.51;100.00;100993.66;5026713;28;20064;-65
2022/04/12 06:45:14;;;;;;;5.97;2.90;;;;;;;8.74;100.00;100993.75;5026126;28;20033;-65
2022/04/12 06:47:40;;;;;;;3.70;2.92;;;;;;;8.84;100.00;100987.25;5026235;28;20095;-67
2022/04/12 06:50:06;;;;;;;3.65;2.60;;;;;;;8.94;100.00;100986.88;5026911;28;20025;-65
2022/04/12 06:52:32;;;;;;;6.65;3.50;;;;;;;9.07;100.00;100987.34;5025660;28;20048;-66
2022/04/12 06:54:58;;;;;;;3.67;1.90;;;;;;;9.16;100.00;100979.94;5025837;28;20210;-67
2022/04/12 06:57:23;;;;;;;5.63;2.92;;;;;;;9.27;100.00;100993.69;5026232;28;20086;-65
2022/04/12 06:59:51;;;;;;;3.70;2.08;;;;;;;9.47;100.00;100987.66;5025622;28;20447;-66
2022/04/12 07:02:17;;;;;;;5.30;2.83;;;;;;;9.53;100.00;100981.28;5026055;28;20040;-64
2022/04/12 07:04:42;;;;;;;3.50;2.45;;;;;;;9.69;100.00;100977.16;5026106;28;20203;-66
2022/04/12 07:07:07;;;;;;;3.28;2.63;;;;;;;9.65;100.00;100979.06;5025750;28;20044;-64
2022/04/12 07:09:33;;;;;;;5.10;2.75;;;;;;;9.74;100.00;100973.41;5025520;28;20068;-64
2022/04/12 07:12:00;;;;;;;4.57;2.83;;;;;;;9.66;100.00;100982.59;5026144;28;20131;-64
2022/04/12 07:14:26;;;;;;;4.30;2.42;;;;;;;9.75;100.00;100975.16;5025388;28;20102;-64
2022/04/12 07:16:51;;;;;;;4.22;2.15;;;;;;;9.91;100.00;100967.47;5025755;28;20442;-65
2022/04/12 07:19:17;;;;;;;3.03;1.95;;;;;;;10.05;100.00;100981.09;5025913;28;20030;-65
2022/04/12 07:21:43;;;;;;;3.38;2.63;;;;;;;10.13;100.00;100979.03;5025094;28;20535;-66
2022/04/12 07:24:09;;;;;;;3.97;2.58;;;;;;;10.35;100.00;100983.44;5025840;28;20088;-65
2022/04/12 07:26:37;;;;;;;4.13;1.98;;;;;;;10.33;100.00;100981.78;5025550;28;20033;-66
2022/04/12 07:29:03;;;;;;;6.70;3.20;;;;;;;10.52;100.00;100981.00;5023878;28;20072;-67
2022/04/12 07:31:29;;;;;;;3.45;2.72;;;;;;;10.43;100.00;100978.69;5007129;28;20057;-65
2022/04/12 07:33:54;;;;;;;5.03;2.92;;;;;;;10.48;100.00;100978.50;5015031;28;20030;-65
2022/04/12 07:36:20;;;;;;;3.55;2.28;;;;;;;10.53;100.00;100973.88;5024752;28;20446;-65
2022/04/12 07:38:48;;;;;;;4.78;2.80;;;;;;;10.76;100.00;100984.44;5025608;28;20090;-65
2022/04/12 07:41:14;;;;;;;3.65;2.33;;;;;;;10.91;100.00;100981.13;5025527;28;20033;-65
2022/04/12 07:43:39;;;;;;;4.55;3.25;;;;;;;10.85;100.00;100981.41;5025101;28;20255;-66
2022/04/12 07:46:04;;;;;;;4.55;2.72;;;;;;;11.05;100.00;100978.75;5025641;28;20109;-66
2022/04/12 07:48:31;;;;;;;3.53;2.00;;;;;;;11.28;100.00;100973.34;5024478;28;20070;-65
2022/04/12 07:50:56;;;;;;;5.18;3.03;;;;;;;11.47;100.00;100981.38;5025297;28;20101;-65
2022/04/12 07:53:22;;;;;;;3.88;2.13;;;;;;;11.43;100.00;100977.09;5025020;28;20067;-65
2022/04/12 07:55:47;;;;;;;3.90;2.63;;;;;;;11.69;100.00;100960.91;5025254;28;20040;-65
2022/04/12 07:58:15;;;;;;;4.00;2.80;;;;;;;11.70;100.00;100957.28;5025585;28;20552;-65
2022/04/12 08:00:40;;;;;;;4.05;2.53;;;;;;;11.92;100.00;100958.91;5016061;28;20042;-65
2022/04/12 08:03:06;;;;;;;4.90;3.13;;;;;;;12.11;100.00;100965.13;5021353;28;20169;-64
2022/04/12 08:05:33;;;;;;;5.80;2.83;;;;;;;12.29;100.00;100972.22;5008045;28;20029;-67
2022/04/12 08:07:58;;;;;;;3.67;2.33;;;;;;;12.52;100.00;100981.78;5024828;28;20057;-66
2022/04/12 08:10:24;;;;;;;3.90;2.30;;;;;;;12.56;100.00;100978.00;5010769;28;20064;-65
2022/04/12 08:12:52;;;;;;;6.45;2.45;;;;;;;12.75;100.00;100991.34;5012298;28;20494;-65
2022/04/12 08:15:18;;;;;;;3.28;2.20;;;;;;;12.92;100.00;100989.53;5015059;28;20105;-65
2022/04/12 08:17:43;;;;;;;4.00;2.70;;;;;;;12.97;100.00;100994.66;5024739;28;20119;-67
2022/04/12 08:20:09;;;;;;;3.50;2.58;;;;;;;12.89;100.00;101002.16;5024538;28;20029;-64
2022/04/12 08:22:36;;;;;;;3.22;1.92;;;;;;;13.14;100.00;100992.03;5024147;28;20086;-65
2022/04/12 08:25:02;;;;;;;3.78;2.05;;;;;;;13.09;100.00;101005.59;5018169;28;20151;-64
2022/04/12 08:27:28;;;;;;;3.97;2.47;;;;;;;13.15;100.00;100986.63;5011237;28;20025;-65
2022/04/12 08:29:53;;;;;;;4.75;2.33;;;;;;;13.16;100.00;100990.13;5018176;28;20037;-65
2022/04/12 08:32:19;;;;;;;4.30;2.60;;;;;;;13.32;100.00;100985.75;5008878;28;20029;-66
2022/04/12 08:34:45;;;;;;;6.65;2.53;;;;;;;13.46;100.00;100984.09;5004746;28;20030;-65
2022/04/12 08:37:11;;;;;;;3.08;1.95;;;;;;;13.60;100.00;100989.56;5004812;28;20041;-66
2022/04/12 08:39:36;;;;;;;3.50;2.35;;;;;;;13.78;100.00;100990.41;5006019;28;20075;-66
2022/04/12 08:42:03;;;;;;;5.00;2.55;;;;;;;14.07;100.00;100991.50;5014890;28;20052;-65
2022/04/12 08:44:30;;;;;;;3.90;2.60;;;;;;;14.22;100.00;100982.63;5024396;28;20077;-65
2022/04/12 08:46:59;;;;;;;3.60;2.13;;;;;;;14.54;100.00;100985.28;5024659;28;20034;-66
2022/04/12 08:49:27;;;;;;;3.20;2.28;;;;;;;14.87;100.00;100977.16;5029954;27;20312;-66
2022/04/12 08:51:52;;;;;;;4.07;2.42;;;;;;;15.12;100.00;100966.72;5019240;28;20486;-67
2022/04/12 08:54:19;;;;;;;4.53;2.63;;;;;;;15.21;100.00;100972.41;5035168;28;20073;-66
2022/04/12 08:56:48;;;;;;;4.00;2.55;;;;;;;16.20;100.00;100983.25;5010093;27;20498;-66
2022/04/12 08:59:14;;;;;;;12.75;2.63;;;;;;;15.95;100.00;100969.63;5122666;27;20038;-65
2022/04/12 09:01:41;;;;;;;5.28;1.88;;;;;;;16.40;100.00;100967.56;5012751;28;20060;-65
2022/04/12 09:04:07;;;;;;;4.25;2.03;;;;;;;17.07;100.00;100957.78;5006753;28;20030;-66
2022/04/12 09:06:32;;;;;;;3.55;2.28;;;;;;;16.98;100.00;100958.41;5074348;27;20106;-65
2022/04/12 09:09:14;;;;;;;3.33;2.10;;;;;;;17.12;100.00;100956.53;5021824;27;20030;-65
2022/04/12 09:11:41;;;;;;;3.72;2.55;;;;;;;17.61;100.00;100956.72;5026479;28;20069;-66
2022/04/12 09:14:06;;;;;;;2.58;1.75;;;;;;;17.84;100.00;100970.28;5026920;28;20026;-65
2022/04/12 09:16:33;;;;;;;6.35;2.58;;;;;;;18.72;100.00;100962.03;5023898;28;20319;-65
2022/04/12 09:18:58;;;;;;;2.58;1.77;;;;;;;18.97;100.00;100953.84;5019508;28;20374;-65
2022/04/12 09:21:27;;;;;;;1.98;1.55;;;;;;;19.51;100.00;100948.78;5024147;28;20221;-66
2022/04/12 09:24:00;;;;;;;2.53;1.70;;;;;;;19.37;100.00;100951.69;5027594;27;20399;-66
2022/04/12 09:26:30;;;;;;;2.97;1.77;;;;;;;19.67;100.00;100935.84;5010333;28;20030;-66
2022/04/12 09:28:56;;;;;;;;;;;;;;;19.96;100.00;100938.94;5015190;28;20029;-67
2022/04/12 09:31:22;;;;;;;4.10;2.05;;;;;;;19.65;100.00;100940.47;5026862;28;19913;-67
2022/04/12 09:33:50;;;;;;;1.90;1.33;;;;;;;19.49;100.00;100931.91;5008708;28;20109;-67
2022/04/12 09:36:15;;;;;;;3.58;1.88;;;;;;;19.61;100.00;100933.63;5023115;28;20034;-66
2022/04/12 09:38:43;;;;;;;3.65;1.73;;;;;;;20.89;100.00;100944.69;5028186;28;20041;-64
2022/04/12 09:41:16;;;;;;;2.58;1.92;;;;;;;20.89;100.00;100942.84;5006623;28;20065;-66
2022/04/12 09:43:56;;;;;;;2.35;1.42;;;;;;;21.19;100.00;100945.66;5016372;28;20025;-67
2022/04/12 09:46:23;;;;;;;1.95;1.20;;;;;;;21.46;100.00;100949.72;5047009;28;20033;-64
2022/04/12 09:48:50;;;;;;;2.35;1.40;;;;;;;21.26;100.00;100956.81;5030958;28;20030;-64
2022/04/12 09:51:16;;;;;;;2.63;1.80;;;;;;;21.61;100.00;100951.09;5016784;28;20409;-64
2022/04/12 09:53:45;;;;;;;1.83;1.00;;;;;;;22.36;100.00;100950.63;5008978;28;20057;-68
2022/04/12 09:56:24;;;;;;;3.08;1.65;;;;;;;21.43;100.00;100950.00;5007460;28;20057;-69
2022/04/12 09:58:57;;;;;;;;;;;;;;;21.91;100.00;100940.34;5025375;27;20085;-64
2022/04/12 10:01:23;;;;;;;3.10;1.15;;;;;;;22.36;100.00;100936.28;5030248;28;19908;-66
2022/04/12 10:03:54;;;;;;;1.95;1.05;;;;;;;22.86;100.00;100931.69;5029662;28;20025;-65
2022/04/12 10:06:22;;;;;;;3.90;1.13;;;;;;;23.45;100.00;100938.69;5017443;28;20058;-66
2022/04/12 10:08:56;;;;;;;2.60;1.23;;;;;;;23.27;100.00;100931.44;5038261;28;20493;-64
2022/04/12 10:11:23;;;;;;;3.63;1.35;;;;;;;23.13;100.00;100932.69;5026083;28;20026;-64
2022/04/12 10:13:49;;;;;;;2.00;1.20;;;;;;;23.51;100.00;100919.09;5015470;28;20068;-66
2022/04/12 10:16:18;;;;;;;2.15;1.00;;;;;;;23.78;100.00;100919.19;5042590;28;20048;-67
2022/04/12 10:18:45;;;;;;;1.40;0.77;;;;;;;23.70;100.00;100905.50;5044510;28;20056;-66
2022/04/12 10:21:12;;;;;;;2.70;1.30;;;;;;;23.12;100.00;100900.31;5037193;28;20029;-65
2022/04/12 10:23:41;;;;;;;1.65;0.98;;;;;;;22.75;100.00;100902.88;5035845;28;20029;-66
2022/04/12 10:26:07;;;;;;;3.15;1.30;;;;;;;22.17;100.00;100898.31;5041026;28;20161;-66
2022/04/12 10:28:34;;;;;;;3.70;1.90;;;;;;;21.51;100.00;100901.53;5045742;28;20198;-66
2022/04/12 10:31:14;;;;;;;8.65;1.55;;;;;;;21.13;100.00;100905.69;5026984;28;20059;-65
2022/04/12 10:33:40;;;;;;;4.15;1.98;;;;;;;20.19;100.00;100903.75;5018161;28;20045;-66
2022/04/12 10:36:07;;;;;;;2.63;1.35;;;;;;;20.28;100.00;100899.47;5005946;28;20033;-65
2022/04/12 10:38:43;;;;;;;3.35;1.45;;;;;;;19.99;100.00;100900.94;5013218;28;20041;-65
2022/04/12 10:41:36;;;;;;;4.25;1.27;;;;;;;20.23;100.00;100897.16;5109304;28;20032;-67
2022/04/12 10:44:01;;;;;;;2.35;1.23;;;;;;;20.98;100.00;100898.03;5094128;28;20058;-66
2022/04/12 10:46:46;;;;;;;2.45;1.42;;;;;;;21.42;100.00;100888.81;5088514;28;20044;-65
2022/04/12 10:49:12;;;;;;;2.30;1.42;;;;;;;21.39;100.00;100880.97;5099315;28;20020;-65
2022/04/12 10:51:41;;;;;;;4.95;1.88;;;;;;;21.32;100.00;100879.81;5103914;28;20038;-68
2022/04/12 10:54:28;;;;;;;2.83;1.33;;;;;;;21.39;100.00;100884.53;5108870;28;20031;-65
2022/04/12 10:57:19;;;;;;;2.30;1.27;;;;;;;21.68;100.00;100879.28;5092438;28;20143;-66
2022/04/12 10:59:53;;;;;;;3.63;1.65;;;;;;;21.17;100.00;100877.44;5089416;28;20504;-65
2022/04/12 11:02:20;;;;;;;4.32;1.23;;;;;;;21.04;100.00;100882.16;5088694;28;20028;-65
2022/04/12 11:04:45;;;;;;;2.00;1.33;;;;;;;20.30;100.00;100879.47;5101363;28;20039;-67
2022/04/12 11:07:30;;;;;;;3.42;1.45;;;;;;;20.80;100.00;100884.19;5108864;28;20164;-65
2022/04/12 11:10:14;;;;;;;2.17;1.40;;;;;;;21.04;100.00;100886.69;5101592;28;20032;-67
2022/04/12 11:12:41;;;;;;;2.65;1.52;;;;;;;21.94;100.00;100873.31;5108313;28;20465;-67
2022/04/12 11:15:25;;;;;;;2.78;1.00;;;;;;;22.40;100.00;100864.63;5109244;28;20034;-66
2022/04/12 11:18:11;;;;;;;3.03;1.15;;;;;;;22.41;100.00;100856.34;5109254;28;20660;-66
2022/04/12 11:20:40;;;;;;;5.32;1.20;;;;;;;22.15;100.00;100857.88;5108452;28;20042;-66
2022/04/12 11:23:12;;;;;;;2.03;1.08;;;;;;;21.48;100.00;100858.56;5106949;28;20409;-66